createdAt,value
2022-10-20T00:01:17.226Z,9.60
2022-10-20T00:03:45.153Z,9.20
2022-10-20T00:06:13.837Z,11.25
2022-10-20T00:08:41.885Z,10.48
2022-10-20T00:11:10.115Z,10.52
2022-10-20T00:13:37.956Z,10.43
2022-10-20T00:16:05.629Z,10.32
2022-10-20T00:18:32.981Z,10.45
2022-10-20T00:21:00.015Z,11.23
2022-10-20T00:23:27.039Z,11.48
2022-10-20T00:26:12.821Z,10.50
2022-10-20T00:28:39.847Z,10.43
2022-10-20T00:31:07.483Z,10.48
2022-10-20T00:33:35.391Z,10.77
2022-10-20T00:36:07.549Z,10.63
2022-10-20T00:38:35.066Z,11.15
2022-10-20T00:41:03.394Z,10.95
2022-10-20T00:43:45.911Z,11.75
2022-10-20T00:46:16.241Z,11.25
2022-10-20T00:48:45.984Z,8.98
2022-10-20T00:51:16.426Z,8.80
2022-10-20T00:53:45.352Z,9.60
2022-10-20T00:56:12.875Z,8.10
2022-10-20T00:58:39.918Z,8.18
2022-10-20T01:01:07.080Z,8.80
2022-10-20T01:03:45.773Z,9.85
2022-10-20T01:06:14.801Z,11.50
2022-10-20T01:08:41.845Z,10.85
2022-10-20T01:11:19.326Z,11.05
2022-10-20T01:14:11.128Z,11.27
2022-10-20T01:17:08.945Z,10.07
2022-10-20T01:19:35.882Z,11.30
2022-10-20T01:22:18.367Z,10.25
2022-10-20T01:25:12.623Z,10.48
2022-10-20T01:27:50.891Z,11.05
2022-10-20T01:30:21.436Z,10.70
2022-10-20T01:32:57.191Z,11.38
2022-10-20T01:35:51.394Z,11.27
2022-10-20T01:38:45.206Z,10.77
2022-10-20T01:41:34.164Z,10.88
2022-10-20T01:44:08.256Z,11.25
2022-10-20T01:46:37.079Z,11.07
2022-10-20T01:49:05.930Z,10.55
2022-10-20T01:51:33.250Z,10.85
2022-10-20T01:54:00.275Z,9.88
2022-10-20T01:56:38.504Z,10.75
2022-10-20T01:59:20.471Z,10.52
2022-10-20T02:02:18.109Z,7.70
2022-10-20T02:04:55.166Z,8.98
2022-10-20T02:07:27.207Z,10.35
2022-10-20T02:10:03.425Z,10.15
2022-10-20T02:12:35.901Z,10.43
2022-10-20T02:17:33.320Z,10.48
2022-10-20T02:20:00.465Z,9.90
2022-10-20T02:22:27.879Z,10.13
2022-10-20T02:24:54.895Z,11.35
2022-10-20T02:27:33.523Z,12.25
2022-10-20T02:30:09.844Z,10.70
2022-10-20T02:32:39.371Z,10.80
2022-10-20T02:35:13.267Z,10.45
2022-10-20T02:37:40.594Z,9.23
2022-10-20T02:40:08.296Z,8.95
2022-10-20T02:42:35.772Z,10.50
2022-10-20T02:45:03.583Z,10.55
2022-10-20T02:47:30.765Z,10.25
2022-10-20T02:49:57.721Z,9.90
2022-10-20T02:52:24.692Z,9.60
2022-10-20T02:54:51.649Z,10.00
2022-10-20T02:57:18.672Z,10.00
2022-10-20T02:59:45.782Z,10.55
2022-10-20T03:02:12.856Z,10.65
2022-10-20T03:04:39.775Z,10.52
2022-10-20T03:07:06.775Z,10.30
2022-10-20T03:09:33.701Z,10.48
2022-10-20T03:12:00.594Z,9.90
2022-10-20T03:14:27.503Z,11.25
2022-10-20T03:16:54.455Z,10.73
2022-10-20T03:19:21.534Z,10.65
2022-10-20T03:21:49.744Z,9.63
2022-10-20T03:24:16.929Z,9.68
2022-10-20T03:26:43.879Z,9.20
2022-10-20T03:29:10.873Z,9.73
2022-10-20T03:31:37.785Z,9.55
2022-10-20T03:34:04.735Z,9.85
2022-10-20T03:36:31.656Z,10.05
2022-10-20T03:38:58.566Z,10.40
2022-10-20T03:41:25.546Z,9.90
2022-10-20T03:43:52.428Z,10.45
2022-10-20T03:46:19.369Z,10.85
2022-10-20T03:48:46.260Z,10.80
2022-10-20T03:51:14.515Z,9.82
2022-10-20T03:53:41.777Z,9.93
2022-10-20T03:56:10.470Z,9.95
2022-10-20T03:58:37.445Z,11.13
2022-10-20T04:01:06.509Z,10.35
2022-10-20T04:03:33.455Z,10.40
2022-10-20T04:06:00.771Z,10.15
2022-10-20T04:08:27.692Z,10.30
2022-10-20T04:10:54.655Z,10.40
2022-10-20T04:13:21.581Z,9.93
2022-10-20T04:15:48.510Z,9.55
2022-10-20T04:18:15.412Z,9.60
2022-10-20T04:20:44.533Z,10.23
2022-10-20T04:23:11.920Z,9.75
2022-10-20T04:25:45.926Z,12.80
2022-10-20T04:28:13.875Z,10.93
2022-10-20T04:30:41.148Z,10.60
2022-10-20T04:33:08.412Z,9.93
2022-10-20T04:35:35.476Z,10.80
2022-10-20T04:38:02.423Z,10.60
2022-10-20T04:40:29.377Z,10.60
2022-10-20T04:42:56.340Z,10.85
2022-10-20T04:45:23.263Z,11.25
2022-10-20T04:47:50.206Z,11.65
2022-10-20T04:50:17.436Z,13.18
2022-10-20T04:52:59.489Z,14.88
2022-10-20T04:55:26.435Z,13.32
2022-10-20T04:57:53.330Z,14.40
2022-10-20T05:00:20.307Z,12.88
2022-10-20T05:02:47.196Z,13.05
2022-10-20T05:05:14.142Z,12.82
2022-10-20T05:07:41.055Z,13.40
2022-10-20T05:10:08.422Z,13.15
2022-10-20T05:12:35.611Z,12.70
2022-10-20T05:15:02.730Z,14.30
2022-10-20T05:17:30.487Z,12.23
2022-10-20T05:19:57.482Z,12.23
2022-10-20T05:22:24.519Z,10.38
2022-10-20T05:24:51.490Z,10.27
2022-10-20T05:27:18.397Z,11.27
2022-10-20T05:29:45.305Z,11.90
2022-10-20T05:32:12.304Z,12.27
2022-10-20T05:34:39.354Z,12.75
2022-10-20T05:37:06.264Z,12.98
2022-10-20T05:39:33.252Z,11.77
2022-10-20T05:42:00.147Z,11.98
2022-10-20T05:44:27.092Z,11.57
2022-10-20T05:46:54.062Z,11.07
2022-10-20T05:49:22.289Z,8.93
2022-10-20T05:51:49.305Z,9.57
2022-10-20T05:54:16.370Z,9.88
2022-10-20T05:56:43.660Z,10.77
2022-10-20T05:59:11.514Z,10.25
2022-10-20T06:01:41.373Z,9.25
2022-10-20T06:04:11.394Z,8.90
2022-10-20T06:06:38.478Z,9.43
2022-10-20T06:09:08.329Z,9.55
2022-10-20T06:11:39.216Z,10.20
2022-10-20T06:14:07.799Z,10.05
2022-10-20T06:16:34.787Z,9.55
2022-10-20T06:19:02.125Z,10.05
2022-10-20T06:21:32.481Z,12.30
2022-10-20T06:24:00.741Z,13.45
2022-10-20T06:26:30.071Z,13.80
2022-10-20T06:29:03.561Z,12.75
2022-10-20T06:31:49.716Z,13.27
2022-10-20T06:34:27.273Z,13.57
2022-10-20T06:37:06.206Z,13.25
2022-10-20T06:39:57.596Z,12.35
2022-10-20T06:42:28.250Z,12.13
2022-10-20T06:45:01.447Z,12.23
2022-10-20T06:47:34.461Z,12.60
2022-10-20T06:50:16.305Z,12.27
2022-10-20T06:52:58.206Z,11.68
2022-10-20T06:55:38.058Z,10.25
2022-10-20T06:58:17.551Z,9.70
2022-10-20T07:01:05.533Z,10.60
2022-10-20T07:03:42.872Z,12.07
2022-10-20T07:06:53.174Z,12.18
2022-10-20T07:09:27.124Z,11.70
2022-10-20T07:12:00.205Z,12.38
2022-10-20T07:14:33.542Z,12.35
2022-10-20T07:17:00.858Z,12.80
2022-10-20T07:19:34.174Z,12.27
2022-10-20T07:22:03.937Z,10.70
2022-10-20T07:24:31.458Z,10.05
2022-10-20T07:26:59.275Z,10.25
2022-10-20T07:32:20.199Z,10.98
2022-10-20T07:34:47.134Z,11.70
2022-10-20T07:37:14.167Z,12.20
2022-10-20T07:39:47.390Z,13.88
2022-10-20T07:42:20.130Z,14.93
2022-10-20T07:45:02.830Z,15.27
2022-10-20T07:47:45.383Z,16.27
2022-10-20T07:50:29.517Z,16.17
2022-10-20T07:53:01.278Z,15.52
2022-10-20T07:55:39.015Z,14.50
2022-10-20T07:58:09.787Z,12.75
2022-10-20T08:03:42.186Z,13.25
2022-10-20T08:06:15.334Z,13.60
2022-10-20T08:08:42.528Z,12.55
2022-10-20T08:11:14.404Z,12.98
2022-10-20T08:13:45.440Z,13.82
2022-10-20T08:16:27.961Z,12.23
2022-10-20T08:22:24.791Z,12.32
2022-10-20T08:24:56.585Z,14.23
2022-10-20T08:27:32.766Z,13.30
2022-10-20T08:30:23.530Z,13.15
2022-10-20T08:32:59.956Z,14.35
2022-10-20T08:35:36.860Z,15.38
2022-10-20T08:38:09.799Z,13.75
2022-10-20T08:40:48.355Z,14.95
2022-10-20T08:43:26.201Z,14.50
2022-10-20T08:46:01.853Z,13.25
2022-10-20T08:48:38.679Z,12.80
2022-10-20T08:51:09.222Z,11.65
2022-10-20T08:53:41.638Z,11.57
2022-10-20T08:56:20.664Z,11.75
2022-10-20T08:58:51.070Z,12.13
2022-10-20T09:01:23.111Z,12.10
2022-10-20T09:04:00.471Z,12.07
2022-10-20T09:06:37.464Z,11.60
2022-10-20T09:09:19.961Z,10.77
2022-10-20T09:12:08.548Z,10.98
2022-10-20T09:14:42.092Z,10.95
2022-10-20T09:17:18.813Z,10.05
2022-10-20T09:19:58.883Z,9.57
2022-10-20T09:22:35.696Z,9.82
2022-10-20T09:25:28.936Z,10.50
2022-10-20T09:28:04.102Z,9.93
2022-10-20T09:31:03.436Z,9.73
2022-10-20T09:36:12.805Z,9.90
2022-10-20T09:38:49.645Z,9.75
2022-10-20T09:41:38.711Z,9.50
2022-10-20T09:44:43.220Z,9.38
2022-10-20T09:47:43.151Z,9.23
2022-10-20T09:50:52.980Z,8.68
2022-10-20T09:53:36.232Z,8.65
2022-10-20T09:56:05.565Z,7.70
2022-10-20T09:58:45.848Z,8.50
2022-10-20T10:01:22.607Z,7.97
2022-10-20T10:04:10.285Z,8.70
2022-10-20T10:06:48.567Z,8.63
2022-10-20T10:09:37.977Z,7.03
2022-10-20T10:12:07.996Z,7.72
2022-10-20T10:14:39.490Z,9.25
2022-10-20T10:17:07.993Z,8.55
2022-10-20T10:19:56.617Z,9.02
2022-10-20T10:22:33.283Z,8.63
2022-10-20T10:25:14.085Z,9.02
2022-10-20T10:28:07.085Z,10.68
2022-10-20T10:30:48.244Z,11.15
2022-10-20T10:33:30.153Z,9.95
2022-10-20T10:36:09.533Z,9.23
2022-10-20T10:38:42.940Z,8.88
2022-10-20T10:41:28.678Z,8.73
2022-10-20T10:44:15.956Z,8.48
2022-10-20T10:47:00.505Z,9.25
2022-10-20T10:50:05.807Z,9.95
2022-10-20T10:52:51.416Z,9.18
2022-10-20T10:55:55.510Z,9.23
2022-10-20T10:58:55.157Z,9.40
2022-10-20T11:02:26.030Z,9.60
2022-10-20T11:05:07.876Z,9.75
2022-10-20T11:08:05.473Z,9.50
2022-10-20T11:10:53.822Z,8.23
2022-10-20T11:13:46.707Z,9.30
2022-10-20T11:16:28.738Z,8.20
2022-10-20T11:19:27.906Z,8.17
2022-10-20T11:22:28.906Z,7.72
2022-10-20T11:25:04.899Z,7.78
2022-10-20T11:27:37.668Z,7.20
2022-10-20T11:30:19.506Z,8.02
2022-10-20T11:32:46.436Z,7.75
2022-10-20T11:35:22.566Z,8.00
2022-10-20T11:38:11.535Z,7.82
2022-10-20T11:40:47.078Z,8.40
2022-10-20T11:43:35.690Z,8.27
2022-10-20T11:46:13.162Z,8.45
2022-10-20T11:48:54.967Z,7.72
2022-10-20T11:51:31.211Z,7.72
2022-10-20T11:54:01.128Z,7.35
2022-10-20T11:57:16.500Z,8.00
2022-10-20T12:00:13.558Z,7.03
2022-10-20T12:03:05.568Z,7.57
2022-10-20T12:05:44.512Z,7.68
2022-10-20T12:09:02.797Z,7.53
2022-10-20T12:11:35.731Z,7.80
2022-10-20T12:14:14.780Z,8.10
2022-10-20T12:16:54.077Z,8.18
2022-10-20T12:19:39.058Z,9.10
2022-10-20T12:22:15.124Z,8.32
2022-10-20T12:24:43.263Z,7.72
2022-10-20T12:27:10.238Z,7.97
2022-10-20T12:29:37.264Z,8.50
2022-10-20T12:32:25.180Z,9.48
2022-10-20T12:34:59.207Z,8.77
2022-10-20T12:37:33.297Z,8.98
2022-10-20T12:40:24.912Z,9.02
2022-10-20T12:42:55.237Z,9.02
2022-10-20T12:45:41.327Z,9.55
2022-10-20T12:48:19.272Z,9.07
2022-10-20T12:50:49.387Z,8.93
2022-10-20T12:53:25.193Z,9.48
2022-10-20T12:56:01.154Z,9.55
2022-10-20T12:58:36.010Z,9.70
2022-10-20T13:01:07.636Z,9.45
2022-10-20T13:03:40.952Z,9.50
2022-10-20T13:06:23.158Z,9.63
2022-10-20T13:09:17.729Z,9.45
2022-10-20T13:11:55.874Z,9.45
2022-10-20T13:14:30.680Z,9.25
2022-10-20T13:17:02.803Z,10.20
2022-10-20T13:20:01.237Z,9.50
2022-10-20T13:22:32.069Z,10.45
2022-10-20T13:25:03.060Z,10.63
2022-10-20T13:27:30.171Z,10.35
2022-10-20T13:29:57.364Z,9.63
2022-10-20T13:33:11.000Z,9.85
2022-10-20T13:35:54.014Z,10.68
2022-10-20T13:38:27.014Z,12.00
2022-10-20T13:41:16.546Z,11.40
2022-10-20T13:43:46.452Z,11.73
2022-10-20T13:46:39.790Z,10.18
2022-10-20T13:49:18.786Z,9.65
2022-10-20T13:51:49.748Z,10.45
2022-10-20T13:54:30.840Z,9.52
2022-10-20T13:56:58.621Z,9.75
2022-10-20T13:59:30.505Z,9.15
2022-10-20T14:02:21.683Z,8.85
2022-10-20T14:04:48.825Z,9.05
2022-10-20T14:07:17.251Z,10.10
2022-10-20T14:09:47.480Z,9.20
2022-10-20T14:12:24.105Z,9.88
2022-10-20T14:14:51.403Z,9.57
2022-10-20T14:17:21.505Z,9.65
2022-10-20T14:19:49.661Z,9.70
2022-10-20T14:25:58.428Z,10.02
2022-10-20T14:28:42.436Z,12.20
2022-10-20T14:31:15.909Z,11.68
2022-10-20T14:33:52.099Z,10.27
2022-10-20T14:38:58.260Z,9.30
2022-10-20T14:41:30.007Z,9.65
2022-10-20T14:44:05.204Z,8.37
2022-10-20T14:46:39.888Z,8.35
2022-10-20T14:49:29.694Z,8.95
2022-10-20T14:52:24.616Z,9.70
2022-10-20T14:54:52.145Z,8.35
2022-10-20T14:57:19.669Z,8.80
2022-10-20T14:59:53.773Z,8.63
2022-10-20T15:02:26.058Z,8.98
2022-10-20T15:04:53.020Z,8.35
2022-10-20T15:07:24.206Z,8.15
2022-10-20T15:09:53.736Z,8.38
2022-10-20T15:12:37.991Z,8.05
2022-10-20T15:15:09.851Z,7.63
2022-10-20T15:17:48.506Z,7.90
2022-10-20T15:20:40.405Z,8.48
2022-10-20T15:23:11.457Z,7.90
2022-10-20T15:25:55.551Z,8.15
2022-10-20T15:28:47.254Z,7.72
2022-10-20T15:31:26.429Z,7.43
2022-10-20T15:34:15.002Z,8.18
2022-10-20T15:37:06.005Z,7.18
2022-10-20T15:39:44.598Z,8.10
2022-10-20T15:42:40.298Z,8.80
2022-10-20T15:45:32.535Z,8.20
2022-10-20T15:48:11.239Z,6.97
2022-10-20T15:50:39.776Z,7.22
2022-10-20T15:53:06.872Z,7.82
2022-10-20T15:55:37.391Z,8.48
2022-10-20T15:58:04.563Z,10.40
2022-10-20T16:00:31.464Z,8.13
2022-10-20T16:02:58.662Z,8.23
2022-10-20T16:05:26.864Z,8.35
2022-10-20T16:07:54.739Z,10.80
2022-10-20T16:10:24.092Z,7.85
2022-10-20T16:12:51.484Z,8.27
2022-10-20T16:15:18.935Z,8.40
2022-10-20T16:17:47.170Z,8.50
2022-10-20T16:20:15.269Z,8.90
2022-10-20T16:22:42.470Z,8.50
2022-10-20T16:25:10.024Z,8.85
2022-10-20T16:27:37.473Z,9.65
2022-10-20T16:30:06.781Z,9.55
2022-10-20T16:32:35.376Z,10.20
2022-10-20T16:35:04.176Z,8.90
2022-10-20T16:37:33.328Z,9.05
2022-10-20T16:40:00.780Z,9.73
2022-10-20T16:42:30.426Z,10.25
2022-10-20T16:44:57.651Z,14.63
2022-10-20T16:47:26.005Z,10.65
2022-10-20T16:49:53.218Z,13.52
2022-10-20T16:52:20.476Z,13.43
2022-10-20T16:54:47.475Z,13.13
2022-10-20T16:57:14.929Z,12.07
2022-10-20T16:59:43.249Z,9.95
2022-10-20T17:02:12.492Z,10.50
2022-10-20T17:04:39.590Z,9.30
2022-10-20T17:07:08.632Z,9.55
2022-10-20T17:09:35.630Z,9.80
2022-10-20T17:12:02.717Z,10.27
2022-10-20T17:14:29.596Z,11.68
2022-10-20T17:16:56.457Z,12.73
2022-10-20T17:19:23.718Z,12.70
2022-10-20T17:21:55.797Z,13.43
2022-10-20T17:24:24.388Z,16.08
2022-10-20T17:26:51.364Z,14.27
2022-10-20T17:29:22.272Z,14.25
2022-10-20T17:31:52.243Z,12.48
2022-10-20T17:34:19.426Z,11.98
2022-10-20T17:36:46.331Z,12.13
2022-10-20T17:39:16.784Z,12.00
2022-10-20T17:41:44.185Z,10.95
2022-10-20T17:44:11.577Z,10.05
2022-10-20T17:46:38.873Z,8.70
2022-10-20T17:49:06.443Z,9.10
2022-10-20T17:51:34.985Z,9.15
2022-10-20T17:54:02.593Z,10.90
2022-10-20T17:56:32.294Z,10.43
2022-10-20T17:59:00.660Z,11.38
2022-10-20T18:01:35.063Z,10.77
2022-10-20T18:04:07.553Z,10.75
2022-10-20T18:06:36.688Z,10.57
2022-10-20T18:09:11.708Z,10.23
2022-10-20T18:11:42.605Z,10.10
2022-10-20T18:14:10.494Z,10.55
2022-10-20T18:16:40.174Z,11.25
2022-10-20T18:19:11.986Z,10.65
2022-10-20T18:21:39.432Z,10.45
2022-10-20T18:24:13.643Z,10.65
2022-10-20T18:26:42.191Z,11.02
2022-10-20T18:29:11.864Z,10.75
2022-10-20T18:31:43.116Z,10.52
2022-10-20T18:34:34.913Z,11.00
2022-10-20T18:37:04.114Z,10.95
2022-10-20T18:39:34.395Z,11.52
2022-10-20T18:42:08.516Z,10.90
2022-10-20T18:44:36.211Z,11.93
2022-10-20T18:47:04.348Z,11.80
2022-10-20T18:49:36.491Z,11.13
2022-10-20T18:52:04.979Z,12.60
2022-10-20T18:54:32.269Z,12.13
2022-10-20T18:56:59.176Z,11.45
2022-10-20T18:59:26.569Z,10.80
2022-10-20T19:01:53.558Z,10.98
2022-10-20T19:04:20.518Z,11.43
2022-10-20T19:06:48.707Z,11.35
2022-10-20T19:09:20.666Z,13.02
2022-10-20T19:14:15.483Z,12.02
2022-10-20T19:16:46.091Z,11.65
2022-10-20T19:19:16.069Z,11.75
2022-10-20T19:21:43.318Z,11.35
2022-10-20T19:24:21.159Z,12.32
2022-10-20T19:27:02.125Z,10.63
2022-10-20T19:29:37.902Z,10.63
2022-10-20T19:32:05.872Z,11.63
2022-10-20T19:34:37.991Z,13.30
2022-10-20T19:37:06.333Z,12.50
2022-10-20T19:39:36.983Z,11.85
2022-10-20T19:42:06.152Z,12.00
2022-10-20T19:44:33.342Z,11.85
2022-10-20T19:47:00.803Z,12.02
2022-10-20T19:49:28.103Z,12.85
2022-10-20T19:51:55.315Z,12.98
2022-10-20T19:54:22.440Z,12.38
2022-10-20T19:56:49.407Z,12.02
2022-10-20T19:59:16.419Z,13.80
2022-10-20T20:01:43.356Z,13.57
2022-10-20T20:04:10.873Z,14.10
2022-10-20T20:06:38.267Z,12.80
2022-10-20T20:09:08.240Z,13.73
2022-10-20T20:11:37.746Z,13.30
2022-10-20T20:14:15.210Z,12.82
2022-10-20T20:19:10.222Z,14.07
2022-10-20T20:21:37.315Z,12.32
2022-10-20T20:24:05.114Z,12.43
2022-10-20T20:26:35.688Z,13.52
2022-10-20T20:29:03.716Z,12.90
2022-10-20T20:31:31.035Z,13.35
2022-10-20T20:33:57.996Z,13.65
2022-10-20T20:36:28.545Z,13.00
2022-10-20T20:38:58.055Z,12.18
2022-10-20T20:41:27.568Z,13.18
2022-10-20T20:43:54.867Z,12.80
2022-10-20T20:46:24.593Z,11.50
2022-10-20T20:48:51.587Z,11.63
2022-10-20T20:51:18.809Z,12.23
2022-10-20T20:53:45.657Z,11.63
2022-10-20T20:56:15.555Z,11.60
2022-10-20T20:58:49.952Z,14.57
2022-10-20T21:01:20.062Z,12.65
2022-10-20T21:03:47.313Z,11.85
2022-10-20T21:06:18.028Z,11.45
2022-10-20T21:08:47.642Z,11.07
2022-10-20T21:11:26.178Z,10.63
2022-10-20T21:13:55.355Z,11.70
2022-10-20T21:16:31.428Z,10.93
2022-10-20T21:19:02.019Z,10.98
2022-10-20T21:21:34.072Z,8.55
2022-10-20T21:24:02.419Z,8.95
2022-10-20T21:26:30.242Z,9.70
2022-10-20T21:28:58.163Z,10.02
2022-10-20T21:31:26.866Z,6.75
2022-10-20T21:33:57.545Z,6.22
2022-10-20T21:36:25.703Z,7.53
2022-10-20T21:38:53.355Z,7.53
2022-10-20T21:41:22.752Z,6.85
2022-10-20T21:43:52.699Z,6.47
2022-10-20T21:46:19.598Z,5.68
2022-10-20T21:48:48.571Z,5.97
2022-10-20T21:51:24.695Z,5.72
2022-10-20T21:54:00.113Z,6.05
2022-10-20T21:56:27.342Z,7.35
2022-10-20T21:58:55.534Z,6.63
2022-10-20T22:01:24.410Z,6.40
2022-10-20T22:03:52.740Z,6.75
2022-10-20T22:06:22.069Z,8.10
2022-10-20T22:08:52.269Z,8.82
2022-10-20T22:11:22.488Z,10.98
2022-10-20T22:13:49.579Z,9.30
2022-10-20T22:16:19.224Z,8.82
2022-10-20T22:18:46.512Z,8.85
2022-10-20T22:21:16.150Z,9.20
2022-10-20T22:23:44.612Z,8.30
2022-10-20T22:26:12.569Z,7.30
2022-10-20T22:28:40.437Z,7.40
2022-10-20T22:31:07.961Z,7.40
2022-10-20T22:33:35.292Z,7.80
2022-10-20T22:36:03.532Z,7.97
2022-10-20T22:38:30.820Z,8.23
2022-10-20T22:41:02.279Z,9.10
2022-10-20T22:43:30.567Z,9.55
2022-10-20T22:45:57.728Z,11.18
2022-10-20T22:48:25.335Z,8.77
2022-10-20T22:50:52.465Z,8.05
2022-10-20T22:53:19.622Z,8.60
2022-10-20T22:55:47.128Z,8.10
2022-10-20T22:58:14.092Z,7.70
2022-10-20T23:00:41.975Z,6.93
2022-10-20T23:03:08.951Z,7.45
2022-10-20T23:05:36.700Z,8.27
2022-10-20T23:08:03.814Z,7.30
2022-10-20T23:10:30.707Z,7.82
2022-10-20T23:12:57.565Z,7.80
2022-10-20T23:15:24.457Z,6.93
2022-10-20T23:17:51.435Z,7.47
2022-10-20T23:20:18.531Z,7.55
2022-10-20T23:22:48.054Z,7.30
2022-10-20T23:25:15.087Z,7.35
2022-10-20T23:27:42.004Z,7.55
2022-10-20T23:30:09.301Z,7.78
2022-10-20T23:32:36.183Z,8.82
2022-10-20T23:35:03.160Z,7.80
2022-10-20T23:37:30.167Z,8.30
2022-10-20T23:40:00.163Z,8.07
2022-10-20T23:42:27.110Z,8.15
2022-10-20T23:44:53.961Z,7.75
2022-10-20T23:47:20.881Z,7.43
2022-10-20T23:49:47.750Z,8.07
2022-10-20T23:52:14.664Z,7.25
2022-10-20T23:54:41.560Z,7.78
2022-10-20T23:57:08.393Z,7.63
2022-10-20T23:59:35.362Z,7.90
